Aérodrome :







RETROUVEZ-NOUS SUR...

 
LOGIN :

S'inscrire | Disclaimer

   EN    FR    IT 

 









Légende :    VFR   VFR Marginal   IFR   IFR Intensif   IFR Très Intensif
Visi : 
Plafond : 
>= 8 km
>= 3000ft
5 à 8 km
1000 à 3000 ft
1500m à 5 km
500 à 1000 ft
800 à 1500m
200 à 500 ft
< 800m
< 200 ft
Symboles :   Orages  Brouillard  Fortes neiges  Fortes précipitations  Vent > 20 kt






- Altitude de l'aérodrome : 266 ft
- Code IATA : MHT


KMHT - Manchester

DERNIER METAR :
  • 242053Z 24006KT 10SM SCT200 BKN250 16/M06 A2990 RMK AO2 SLP141 T01561061 56015

METARs EXPIRÉS :
  • 241953Z 23010KT 10SM SCT250 16/M07 A2991 RMK AO2 SLP145 T01561067
  • 241853Z 22011G15KT 10SM SCT250 16/M09 A2993 RMK AO2 SLP151 T01561094

TAF KMHT
Valide du 24 à 18h jusqu'au 25 à 18h UTC


241814Z 2418/2518 20010G15KT P6SM SCT250
FM250100 21004KT P6SM BKN200
FM250800 00000KT P6SM BKN140
FM251400 34004KT P6SM BKN060



MET'MAP, la Météo Aéronautique d'un coup d'oeil ! - Copyright ORBIFLY Décembre 2007 - Disclaimer

ORBIFLY MET'MAP TEAM :

Programmation & Développement : Alexandra Zaïnal
Sur une idée originale de : Baudouin d'Aumeries
Assistance à la programmation : Marc-Olivier Méhu
Soutien technique & logistique : Manuel Goepfert

Contact : metmap@orbifly.com




SOURCES & CREDITS :

   NOAA